Weather History for Pella, IA

Change the Weather History Date:

Thursday, March 27, 2014

  Actual Average (KOXV) Record (KOXV)
Temperature  
Mean Temperature 46 °F -  
Max Temperature 55 °F 55 °F 86 °F (1991)
Min Temperature 37 °F 34 °F 15 °F (1964)
Degree Days  
Heating Degree Days 19    
Moisture  
Dew Point 43 °F    
Average Humidity 94    
Maximum Humidity 99    
Minimum Humidity 86    
Precipitation  
Precipitation 0.01 in - - ()
Sea Level Pressure  
Sea Level Pressure 29.52 in    
Wind  
Wind Speed 15 mph (South)    
Max Wind Speed 28 mph    
Max Gust Speed 40 mph    
Visibility 7 miles    
Events Rain    
Averages and records for this station are not official NWS values.
T = Trace of Precipitation, MM = Missing Value Source: NWS Daily Summary

Daily Weather History Graph

Daily Weather History Graph

Search for Another Location

Airport:

Trip Planner

Search our weather history database for the weather conditions in past years. The results will help you decide how hot, cold, wet, or windy it might be!

Date:

Astronomy

Mar. 27, 2014 Rise Set
Actual Time 7:03 AM CDT 7:31 PM CDT
Civil Twilight 6:35 AM CDT 7:59 PM CDT
Nautical Twilight 6:02 AM CDT 8:32 PM CDT
Astronomical Twilight 5:29 AM CDT 9:05 PM CDT
Moon 4:57 AM CDT (3/27) 4:17 PM CDT (3/27)
Length of Visible Light 13h 23m
Length of Day
12h 28m
Waning Crescent, 13% of the Moon is Illuminated
Mar 27
Waning Crescent
Mar 30
New
Apr 7
First Quarter
Apr 15
Full
Apr 22
Last Quarter

Hourly Weather History & Observations

Time (CDT) Temp. Windchill Dew Point Humidity Pressure Visibility Wind Dir Wind Speed Gust Speed Precip Events Conditions
12:15 AM 40.6 °F 33.0 °F 38.7 °F 93% 29.77 in 4.0 mi South 13.8 mph 20.7 mph N/A Rain Light Rain
12:35 AM 40.6 °F 32.7 °F 39.2 °F 95% 29.77 in 4.0 mi South 15.0 mph 20.7 mph N/A Rain Light Rain
12:55 AM 40.3 °F 32.2 °F 39.4 °F 97% 29.76 in 4.0 mi South 15.0 mph - N/A   Light Drizzle
1:15 AM 40.1 °F 32.4 °F 39.2 °F 97% 29.75 in 5.0 mi South 13.8 mph - N/A Rain Light Rain
1:35 AM 40.1 °F 31.6 °F 39.2 °F 97% 29.74 in 7.0 mi SSE 16.1 mph 20.7 mph N/A   Mostly Cloudy
1:55 AM 40.3 °F 31.6 °F 39.2 °F 96% 29.73 in 7.0 mi South 17.3 mph 24.2 mph N/A   Overcast
2:15 AM 40.3 °F 32.2 °F 38.8 °F 95% 29.72 in 5.0 mi South 15.0 mph 21.9 mph N/A   Overcast
2:35 AM 40.1 °F 31.6 °F 39.2 °F 97% 29.71 in 4.0 mi South 16.1 mph 20.7 mph N/A   Drizzle
2:55 AM 40.1 °F 32.7 °F 39.2 °F 97% 29.70 in 4.0 mi SSE 12.7 mph 21.9 mph N/A Rain Rain
3:15 AM 39.6 °F 31.7 °F 38.8 °F 97% 29.68 in 5.0 mi SSE 13.8 mph 20.7 mph N/A Rain Light Rain
3:35 AM 39.4 °F 32.3 °F 38.7 °F 97% 29.67 in 5.0 mi SSE 11.5 mph - N/A   Overcast
3:55 AM 39.2 °F 30.8 °F 38.5 °F 97% 29.66 in 4.0 mi SSE 15.0 mph 19.6 mph N/A Rain Light Rain
4:15 AM 39.2 °F 32.5 °F 38.3 °F 97% 29.65 in 5.0 mi SSE 10.4 mph 17.3 mph N/A Rain Light Rain
4:35 AM 39.0 °F 31.8 °F 38.3 °F 97% 29.64 in 5.0 mi SSE 11.5 mph - N/A   Light Drizzle
4:55 AM 38.8 °F 31.2 °F 38.3 °F 98% 29.63 in 5.0 mi SSE 12.7 mph 17.3 mph N/A   Light Drizzle
5:15 AM 38.8 °F 31.6 °F 38.3 °F 98% 29.62 in 4.0 mi SSE 11.5 mph - N/A   Overcast
5:35 AM 38.8 °F 31.6 °F 38.3 °F 98% 29.62 in 3.0 mi SSE 11.5 mph - N/A   Overcast
5:55 AM 39.0 °F 31.8 °F 38.5 °F 98% 29.61 in 2.5 mi SSE 11.5 mph - N/A Rain Rain
6:15 AM 39.2 °F 31.6 °F 38.7 °F 98% 29.61 in 2.5 mi SSE 12.7 mph 18.4 mph N/A Rain Light Rain
6:35 AM 39.2 °F 31.6 °F 38.8 °F 99% 29.60 in 2.0 mi SSE 12.7 mph - N/A Rain Light Rain
6:55 AM 39.2 °F 32.0 °F 38.8 °F 99% 29.59 in 2.5 mi SSE 11.5 mph 17.3 mph N/A Rain Light Rain
7:15 AM 39.4 °F 31.1 °F 39.2 °F 99% 29.59 in 3.0 mi SSE 15.0 mph 20.7 mph N/A   Overcast
7:35 AM 39.7 °F 31.5 °F 39.6 °F 99% 29.58 in 4.0 mi SSE 15.0 mph 20.7 mph N/A   Overcast
7:55 AM 40.1 °F 32.7 °F 39.7 °F 99% 29.57 in 4.0 mi SSE 12.7 mph 18.4 mph N/A   Mostly Cloudy
8:15 AM 40.5 °F 33.2 °F 40.1 °F 99% 29.56 in 3.0 mi SSE 12.7 mph 19.6 mph N/A   Overcast
8:35 AM 41.0 °F 33.1 °F 40.1 °F 97% 29.56 in 4.0 mi SSE 15.0 mph 19.6 mph N/A   Overcast
8:55 AM 41.4 °F 33.3 °F 40.5 °F 97% 29.55 in 5.0 mi SSE 16.1 mph 20.7 mph N/A   Overcast
9:15 AM 41.9 °F 35.0 °F 40.8 °F 96% 29.54 in 7.0 mi SSE 12.7 mph 19.6 mph N/A   Overcast
9:35 AM 42.4 °F 34.7 °F 41.0 °F 95% 29.53 in 7.0 mi SSE 16.1 mph 19.6 mph N/A   Light Drizzle
9:55 AM 43.7 °F 37.3 °F 42.3 °F 95% 29.52 in 7.0 mi SSE 12.7 mph 21.9 mph N/A   Overcast
10:15 AM 44.1 °F 36.5 °F 42.8 °F 95% 29.51 in 7.0 mi SSE 17.3 mph 24.2 mph N/A   Overcast
10:35 AM 44.6 °F 38.1 °F 43.2 °F 95% 29.50 in 4.0 mi SSE 13.8 mph 21.9 mph N/A   Overcast
10:55 AM 44.8 °F 37.7 °F 43.9 °F 97% 29.49 in 5.0 mi SSE 16.1 mph 20.7 mph N/A   Overcast
11:15 AM 45.9 °F 39.1 °F 44.8 °F 96% 29.49 in 7.0 mi South 16.1 mph 21.9 mph N/A   Overcast
11:35 AM 46.9 °F - 45.1 °F 93% 29.48 in 7.0 mi South 16.1 mph - N/A   Overcast
11:55 AM 47.7 °F - 45.5 °F 92% 29.47 in 7.0 mi South 19.6 mph 26.5 mph N/A   Overcast
12:15 PM 47.8 °F - 45.5 °F 92% 29.46 in 10.0 mi South 13.8 mph - N/A   Overcast
12:35 PM 48.7 °F - 46.2 °F 91% 29.45 in 10.0 mi South 16.1 mph 23.0 mph N/A   Mostly Cloudy
12:55 PM 49.5 °F - 46.4 °F 89% 29.44 in 10.0 mi South 19.6 mph 26.5 mph N/A   Mostly Cloudy
1:15 PM 49.1 °F - 46.4 °F 90% 29.44 in 10.0 mi South 15.0 mph 23.0 mph N/A   Mostly Cloudy
1:35 PM 49.1 °F - 46.4 °F 90% 29.43 in 7.0 mi South 15.0 mph 24.2 mph N/A   Overcast
1:55 PM 49.3 °F - 46.8 °F 91% 29.42 in 7.0 mi South 16.1 mph 23.0 mph N/A   Overcast
2:15 PM 49.1 °F - 46.9 °F 92% 29.41 in 5.0 mi South 13.8 mph 23.0 mph N/A   Light Drizzle
2:35 PM 48.7 °F - 47.1 °F 94% 29.40 in 7.0 mi SSE 13.8 mph 18.4 mph N/A Rain Light Rain
2:55 PM 49.8 °F - 48.0 °F 94% 29.37 in 10.0 mi SSE 17.3 mph 21.9 mph N/A   Overcast
3:15 PM 51.1 °F - 48.6 °F 91% 29.36 in 10.0 mi South 15.0 mph 25.3 mph N/A   Overcast
3:35 PM 52.2 °F - 49.1 °F 89% 29.36 in 10.0 mi South 13.8 mph 24.2 mph N/A   Overcast
3:55 PM 53.4 °F - 50.0 °F 88% 29.34 in 10.0 mi SSE 13.8 mph - N/A   Overcast
4:15 PM 54.1 °F - 50.9 °F 89% 29.33 in 10.0 mi SSE 15.0 mph 20.7 mph N/A   Overcast
4:35 PM 54.5 °F - 50.9 °F 88% 29.31 in 10.0 mi SSE 17.3 mph 25.3 mph N/A   Overcast
4:55 PM 55.0 °F - 50.9 °F 86% 29.29 in 10.0 mi SSE 13.8 mph 23.0 mph N/A   Mostly Cloudy
5:15 PM 54.9 °F - 50.9 °F 86% 29.30 in 10.0 mi South 17.3 mph 20.7 mph N/A   Clear
5:35 PM 54.3 °F - 50.9 °F 88% 29.28 in 7.0 mi SSE 16.1 mph 21.9 mph N/A Rain Light Rain
5:55 PM 53.8 °F - 51.8 °F 93% 29.30 in 7.0 mi South 16.1 mph 21.9 mph N/A Rain Rain
6:15 PM 54.0 °F - 51.8 °F 92% 29.29 in 10.0 mi SSE 11.5 mph - N/A   Light Drizzle
6:35 PM 54.0 °F - 51.4 °F 91% 29.29 in 10.0 mi SSE 11.5 mph - N/A   Mostly Cloudy
6:55 PM 53.8 °F - 51.4 °F 92% 29.29 in 10.0 mi South 12.7 mph 23.0 mph N/A   Mostly Cloudy
7:15 PM 53.4 °F - 50.4 °F 89% 29.31 in 10.0 mi SW 20.7 mph 28.8 mph N/A   Overcast
7:55 PM 47.3 °F - 45.1 °F 92% 29.32 in 10.0 mi WSW 23.0 mph 32.2 mph N/A   Overcast
8:15 PM 47.5 °F - 45.5 °F 93% 29.34 in 10.0 mi West 19.6 mph 34.5 mph N/A   Overcast
8:35 PM 45.7 °F 36.9 °F 43.9 °F 93% 29.39 in 5.0 mi WNW 25.3 mph 34.5 mph 0.01 in Rain Light Rain
8:55 PM 43.0 °F 33.1 °F 41.2 °F 93% 29.43 in 4.0 mi WNW 26.5 mph 34.5 mph 0.01 in   Drizzle
9:15 PM 41.9 °F 31.7 °F 40.8 °F 96% 29.47 in 3.0 mi WNW 26.5 mph 35.7 mph N/A   Drizzle
9:35 PM 41.0 °F 30.2 °F 39.7 °F 95% 29.50 in 4.0 mi WNW 27.6 mph 40.3 mph N/A   Light Drizzle
9:55 PM 40.8 °F 30.2 °F 39.0 °F 93% 29.53 in 5.0 mi NW 26.5 mph 36.8 mph N/A   Light Drizzle
10:15 PM 40.1 °F 29.2 °F 38.1 °F 93% 29.56 in 7.0 mi WNW 26.5 mph 35.7 mph N/A   Overcast
10:35 PM 38.3 °F 27.6 °F 36.1 °F 92% 29.58 in 10.0 mi WNW 23.0 mph 36.8 mph N/A   Overcast
10:55 PM 37.8 °F 28.3 °F 35.8 °F 93% 29.61 in 10.0 mi WNW 17.3 mph 28.8 mph N/A   Overcast
11:15 PM 37.4 °F 27.2 °F 35.4 °F 93% 29.63 in 10.0 mi WNW 19.6 mph 28.8 mph N/A   Overcast
11:35 PM 37.4 °F 26.4 °F 35.1 °F 91% 29.64 in 10.0 mi WNW 23.0 mph 32.2 mph N/A   Overcast
11:55 PM 37.2 °F 25.9 °F 34.9 °F 91% 29.67 in 10.0 mi WNW 24.2 mph 34.5 mph N/A   Overcast